sensor_id;sensor_type;location;lat;lon;timestamp;temperature;humidity
10417;DHT22;62605;49.432;8.680;2023-11-19T00:02:08;8.80;99.90
10417;DHT22;62605;49.432;8.680;2023-11-19T00:04:37;8.80;1.00
10417;DHT22;62605;49.432;8.680;2023-11-19T00:07:05;8.80;99.90
10417;DHT22;62605;49.432;8.680;2023-11-19T00:09:34;8.90;1.00
10417;DHT22;62605;49.432;8.680;2023-11-19T00:12:04;8.90;1.00
10417;DHT22;62605;49.432;8.680;2023-11-19T00:14:31;9.00;2.10
10417;DHT22;62605;49.432;8.680;2023-11-19T00:16:59;9.00;99.90
10417;DHT22;62605;49.432;8.680;2023-11-19T00:19:28;9.00;1.00
10417;DHT22;62605;49.432;8.680;2023-11-19T00:21:56;9.10;1.00
10417;DHT22;62605;49.432;8.680;2023-11-19T00:24:28;9.00;1.00
10417;DHT22;62605;49.432;8.680;2023-11-19T00:26:56;9.10;9.20
10417;DHT22;62605;49.432;8.680;2023-11-19T00:29:23;9.10;99.90
10417;DHT22;62605;49.432;8.680;2023-11-19T00:31:51;9.10;99.90
10417;DHT22;62605;49.432;8.680;2023-11-19T00:34:18;9.10;1.00
10417;DHT22;62605;49.432;8.680;2023-11-19T00:36:48;9.20;1.00
10417;DHT22;62605;49.432;8.680;2023-11-19T00:39:16;9.20;99.90
10417;DHT22;62605;49.432;8.680;2023-11-19T00:41:43;9.20;99.90
10417;DHT22;62605;49.432;8.680;2023-11-19T00:44:12;9.20;99.90
10417;DHT22;62605;49.432;8.680;2023-11-19T00:46:39;9.30;1.00
10417;DHT22;62605;49.432;8.680;2023-11-19T00:49:06;9.30;1.00
10417;DHT22;62605;49.432;8.680;2023-11-19T00:51:33;9.30;99.90
10417;DHT22;62605;49.432;8.680;2023-11-19T00:54:02;9.30;1.00
10417;DHT22;62605;49.432;8.680;2023-11-19T00:56:30;9.30;1.00
10417;DHT22;62605;49.432;8.680;2023-11-19T00:58:57;9.30;69.60
10417;DHT22;62605;49.432;8.680;2023-11-19T01:01:26;9.30;99.90
10417;DHT22;62605;49.432;8.680;2023-11-19T01:03:53;9.40;99.90
10417;DHT22;62605;49.432;8.680;2023-11-19T01:06:27;9.40;1.00
10417;DHT22;62605;49.432;8.680;2023-11-19T01:08:56;9.40;15.70
10417;DHT22;62605;49.432;8.680;2023-11-19T01:11:25;9.40;99.90
10417;DHT22;62605;49.432;8.680;2023-11-19T01:13:53;9.40;99.90
10417;DHT22;62605;49.432;8.680;2023-11-19T01:16:21;9.50;99.90
10417;DHT22;62605;49.432;8.680;2023-11-19T01:18:48;9.40;99.90
10417;DHT22;62605;49.432;8.680;2023-11-19T01:21:16;9.40;99.90
10417;DHT22;62605;49.432;8.680;2023-11-19T01:23:43;9.40;99.90
10417;DHT22;62605;49.432;8.680;2023-11-19T01:26:11;9.50;99.90
10417;DHT22;62605;49.432;8.680;2023-11-19T01:28:43;9.50;99.90
10417;DHT22;62605;49.432;8.680;2023-11-19T01:31:18;9.50;99.90
10417;DHT22;62605;49.432;8.680;2023-11-19T01:33:45;9.50;1.00
10417;DHT22;62605;49.432;8.680;2023-11-19T01:36:14;9.60;1.00
10417;DHT22;62605;49.432;8.680;2023-11-19T01:38:45;9.60;1.00
10417;DHT22;62605;49.432;8.680;2023-11-19T01:41:13;9.60;1.00
10417;DHT22;62605;49.432;8.680;2023-11-19T01:43:41;9.60;1.00
10417;DHT22;62605;49.432;8.680;2023-11-19T01:46:09;9.60;99.90
10417;DHT22;62605;49.432;8.680;2023-11-19T01:48:38;9.60;99.90
10417;DHT22;62605;49.432;8.680;2023-11-19T01:51:13;9.70;99.90
10417;DHT22;62605;49.432;8.680;2023-11-19T01:53:43;9.70;1.00
10417;DHT22;62605;49.432;8.680;2023-11-19T01:56:13;9.70;99.90
10417;DHT22;62605;49.432;8.680;2023-11-19T01:58:44;9.70;1.00
10417;DHT22;62605;49.432;8.680;2023-11-19T02:01:12;9.70;1.00
10417;DHT22;62605;49.432;8.680;2023-11-19T02:03:40;9.70;1.00
10417;DHT22;62605;49.432;8.680;2023-11-19T02:06:08;9.70;1.00
10417;DHT22;62605;49.432;8.680;2023-11-19T02:08:36;9.70;1.00
10417;DHT22;62605;49.432;8.680;2023-11-19T02:11:05;9.80;1.00
10417;DHT22;62605;49.432;8.680;2023-11-19T02:13:34;9.70;1.00
10417;DHT22;62605;49.432;8.680;2023-11-19T02:16:04;9.80;99.90
10417;DHT22;62605;49.432;8.680;2023-11-19T02:18:32;9.80;99.90
10417;DHT22;62605;49.432;8.680;2023-11-19T02:21:00;9.80;1.00
10417;DHT22;62605;49.432;8.680;2023-11-19T02:23:28;9.90;1.00
10417;DHT22;62605;49.432;8.680;2023-11-19T02:26:02;9.90;56.60
10417;DHT22;62605;49.432;8.680;2023-11-19T02:28:33;9.90;99.90
10417;DHT22;62605;49.432;8.680;2023-11-19T02:31:01;9.90;1.00
10417;DHT22;62605;49.432;8.680;2023-11-19T02:33:30;10.00;65.20
10417;DHT22;62605;49.432;8.680;2023-11-19T02:35:58;10.00;69.90
10417;DHT22;62605;49.432;8.680;2023-11-19T02:38:25;10.00;1.70
10417;DHT22;62605;49.432;8.680;2023-11-19T02:40:52;10.00;1.00
10417;DHT22;62605;49.432;8.680;2023-11-19T02:43:19;10.00;99.90
10417;DHT22;62605;49.432;8.680;2023-11-19T02:45:48;10.00;99.90
10417;DHT22;62605;49.432;8.680;2023-11-19T02:48:17;10.10;1.00
10417;DHT22;62605;49.432;8.680;2023-11-19T02:50:44;10.10;1.00
10417;DHT22;62605;49.432;8.680;2023-11-19T02:53:16;10.10;1.00
10417;DHT22;62605;49.432;8.680;2023-11-19T02:55:49;10.10;1.00
10417;DHT22;62605;49.432;8.680;2023-11-19T02:58:17;10.10;99.90
10417;DHT22;62605;49.432;8.680;2023-11-19T03:00:51;10.10;99.90
10417;DHT22;62605;49.432;8.680;2023-11-19T03:03:23;10.10;99.90
10417;DHT22;62605;49.432;8.680;2023-11-19T03:05:56;10.10;99.90
10417;DHT22;62605;49.432;8.680;2023-11-19T03:08:23;10.20;99.90
10417;DHT22;62605;49.432;8.680;2023-11-19T03:10:51;10.20;99.90
10417;DHT22;62605;49.432;8.680;2023-11-19T03:13:18;10.20;99.90
10417;DHT22;62605;49.432;8.680;2023-11-19T03:15:45;10.20;99.90
10417;DHT22;62605;49.432;8.680;2023-11-19T03:18:14;10.20;95.20
10417;DHT22;62605;49.432;8.680;2023-11-19T03:20:43;10.30;99.90
10417;DHT22;62605;49.432;8.680;2023-11-19T03:23:10;10.30;99.90
10417;DHT22;62605;49.432;8.680;2023-11-19T03:25:38;10.30;99.90
10417;DHT22;62605;49.432;8.680;2023-11-19T03:28:06;10.30;99.90
10417;DHT22;62605;49.432;8.680;2023-11-19T03:30:37;10.30;99.90
10417;DHT22;62605;49.432;8.680;2023-11-19T03:33:04;10.40;99.90
10417;DHT22;62605;49.432;8.680;2023-11-19T03:35:32;10.40;99.90
10417;DHT22;62605;49.432;8.680;2023-11-19T03:38:02;10.40;1.00
10417;DHT22;62605;49.432;8.680;2023-11-19T03:40:30;10.40;1.00
10417;DHT22;62605;49.432;8.680;2023-11-19T03:42:57;10.50;1.00
10417;DHT22;62605;49.432;8.680;2023-11-19T03:45:25;10.40;1.00
10417;DHT22;62605;49.432;8.680;2023-11-19T03:47:54;10.50;99.90
10417;DHT22;62605;49.432;8.680;2023-11-19T03:50:21;10.50;99.90
10417;DHT22;62605;49.432;8.680;2023-11-19T03:52:50;10.50;99.90
10417;DHT22;62605;49.432;8.680;2023-11-19T03:55:18;10.50;99.90
10417;DHT22;62605;49.432;8.680;2023-11-19T03:57:45;10.60;99.90
10417;DHT22;62605;49.432;8.680;2023-11-19T04:00:15;10.60;99.90
10417;DHT22;62605;49.432;8.680;2023-11-19T04:02:48;10.60;99.90
10417;DHT22;62605;49.432;8.680;2023-11-19T04:05:16;10.60;99.90
10417;DHT22;62605;49.432;8.680;2023-11-19T04:07:44;10.60;99.90
10417;DHT22;62605;49.432;8.680;2023-11-19T04:10:15;10.70;99.90
10417;DHT22;62605;49.432;8.680;2023-11-19T04:12:44;10.70;99.90
10417;DHT22;62605;49.432;8.680;2023-11-19T04:15:13;10.70;99.90
10417;DHT22;62605;49.432;8.680;2023-11-19T04:17:41;10.70;1.00
10417;DHT22;62605;49.432;8.680;2023-11-19T04:20:11;10.70;1.00
10417;DHT22;62605;49.432;8.680;2023-11-19T04:22:39;10.80;1.00
10417;DHT22;62605;49.432;8.680;2023-11-19T04:25:07;10.80;1.00
10417;DHT22;62605;49.432;8.680;2023-11-19T04:27:47;10.80;99.90
10417;DHT22;62605;49.432;8.680;2023-11-19T04:30:20;10.80;1.00
10417;DHT22;62605;49.432;8.680;2023-11-19T04:32:48;10.70;1.00
10417;DHT22;62605;49.432;8.680;2023-11-19T04:35:16;10.90;1.00
10417;DHT22;62605;49.432;8.680;2023-11-19T04:37:45;10.90;1.00
10417;DHT22;62605;49.432;8.680;2023-11-19T04:40:43;10.90;1.00
10417;DHT22;62605;49.432;8.680;2023-11-19T04:43:12;10.90;1.00
10417;DHT22;62605;49.432;8.680;2023-11-19T04:45:39;10.90;27.00
10417;DHT22;62605;49.432;8.680;2023-11-19T04:48:07;10.90;99.90
10417;DHT22;62605;49.432;8.680;2023-11-19T04:50:35;11.00;99.90
10417;DHT22;62605;49.432;8.680;2023-11-19T04:53:03;10.90;99.90
10417;DHT22;62605;49.432;8.680;2023-11-19T04:55:30;11.00;99.90
10417;DHT22;62605;49.432;8.680;2023-11-19T04:57:59;11.00;1.00
10417;DHT22;62605;49.432;8.680;2023-11-19T05:00:28;11.00;1.00
10417;DHT22;62605;49.432;8.680;2023-11-19T05:02:56;11.00;1.00
10417;DHT22;62605;49.432;8.680;2023-11-19T05:05:23;11.00;1.00
10417;DHT22;62605;49.432;8.680;2023-11-19T05:07:54;11.00;72.30
10417;DHT22;62605;49.432;8.680;2023-11-19T05:10:22;11.00;99.90
10417;DHT22;62605;49.432;8.680;2023-11-19T05:12:50;11.00;99.90
10417;DHT22;62605;49.432;8.680;2023-11-19T05:15:18;11.10;99.90
10417;DHT22;62605;49.432;8.680;2023-11-19T05:17:47;11.10;99.90
10417;DHT22;62605;49.432;8.680;2023-11-19T05:20:14;11.10;99.90
10417;DHT22;62605;49.432;8.680;2023-11-19T05:22:45;11.20;99.90
10417;DHT22;62605;49.432;8.680;2023-11-19T05:25:13;11.20;99.90
10417;DHT22;62605;49.432;8.680;2023-11-19T05:27:40;11.20;99.90
10417;DHT22;62605;49.432;8.680;2023-11-19T05:30:09;11.20;99.90
10417;DHT22;62605;49.432;8.680;2023-11-19T05:32:37;11.20;1.00
10417;DHT22;62605;49.432;8.680;2023-11-19T05:35:07;11.20;1.00
10417;DHT22;62605;49.432;8.680;2023-11-19T05:37:36;11.20;1.00
10417;DHT22;62605;49.432;8.680;2023-11-19T05:40:05;11.30;1.00
10417;DHT22;62605;49.432;8.680;2023-11-19T05:42:42;11.20;1.00
10417;DHT22;62605;49.432;8.680;2023-11-19T05:45:12;11.20;1.00
10417;DHT22;62605;49.432;8.680;2023-11-19T05:47:40;11.30;1.00
10417;DHT22;62605;49.432;8.680;2023-11-19T05:50:11;11.30;1.00
10417;DHT22;62605;49.432;8.680;2023-11-19T05:52:46;11.40;1.00
10417;DHT22;62605;49.432;8.680;2023-11-19T05:55:13;11.30;1.00
10417;DHT22;62605;49.432;8.680;2023-11-19T05:57:42;11.40;1.00
10417;DHT22;62605;49.432;8.680;2023-11-19T06:00:11;11.40;1.00
10417;DHT22;62605;49.432;8.680;2023-11-19T06:02:41;11.40;1.00
10417;DHT22;62605;49.432;8.680;2023-11-19T06:05:10;11.50;1.00
10417;DHT22;62605;49.432;8.680;2023-11-19T06:07:37;11.40;1.00
10417;DHT22;62605;49.432;8.680;2023-11-19T06:10:10;11.40;1.00
10417;DHT22;62605;49.432;8.680;2023-11-19T06:12:40;11.50;1.00
10417;DHT22;62605;49.432;8.680;2023-11-19T06:15:08;11.50;99.90
10417;DHT22;62605;49.432;8.680;2023-11-19T06:17:36;11.50;99.90
10417;DHT22;62605;49.432;8.680;2023-11-19T06:20:06;11.60;1.00
10417;DHT22;62605;49.432;8.680;2023-11-19T06:22:36;11.60;99.90
10417;DHT22;62605;49.432;8.680;2023-11-19T06:25:10;11.60;99.90
10417;DHT22;62605;49.432;8.680;2023-11-19T06:27:40;11.60;99.90
10417;DHT22;62605;49.432;8.680;2023-11-19T06:30:20;11.60;1.00
10417;DHT22;62605;49.432;8.680;2023-11-19T06:32:47;11.60;1.00
10417;DHT22;62605;49.432;8.680;2023-11-19T06:35:45;11.60;1.00
10417;DHT22;62605;49.432;8.680;2023-11-19T06:38:14;11.60;1.00
10417;DHT22;62605;49.432;8.680;2023-11-19T06:40:41;11.70;1.00
10417;DHT22;62605;49.432;8.680;2023-11-19T06:43:09;11.70;1.00
10417;DHT22;62605;49.432;8.680;2023-11-19T06:45:37;11.70;1.00
10417;DHT22;62605;49.432;8.680;2023-11-19T06:48:09;11.70;53.60
10417;DHT22;62605;49.432;8.680;2023-11-19T06:50:37;11.70;1.00
10417;DHT22;62605;49.432;8.680;2023-11-19T06:53:05;11.80;1.00
10417;DHT22;62605;49.432;8.680;2023-11-19T06:55:45;11.90;1.00
10417;DHT22;62605;49.432;8.680;2023-11-19T06:58:16;11.90;99.90
10417;DHT22;62605;49.432;8.680;2023-11-19T07:00:46;12.00;1.00
10417;DHT22;62605;49.432;8.680;2023-11-19T07:03:16;12.00;1.00
10417;DHT22;62605;49.432;8.680;2023-11-19T07:05:44;12.00;1.00
10417;DHT22;62605;49.432;8.680;2023-11-19T07:08:11;12.00;1.00
10417;DHT22;62605;49.432;8.680;2023-11-19T07:10:40;12.00;1.00
10417;DHT22;62605;49.432;8.680;2023-11-19T07:13:08;12.00;1.00
10417;DHT22;62605;49.432;8.680;2023-11-19T07:15:36;12.00;1.00
10417;DHT22;62605;49.432;8.680;2023-11-19T07:18:07;12.00;1.00
10417;DHT22;62605;49.432;8.680;2023-11-19T07:20:41;12.10;1.00
10417;DHT22;62605;49.432;8.680;2023-11-19T07:23:12;12.10;99.90
10417;DHT22;62605;49.432;8.680;2023-11-19T07:25:45;12.10;99.90
10417;DHT22;62605;49.432;8.680;2023-11-19T07:28:20;12.10;1.00
10417;DHT22;62605;49.432;8.680;2023-11-19T07:31:35;12.20;1.00
10417;DHT22;62605;49.432;8.680;2023-11-19T07:34:20;12.20;99.90
10417;DHT22;62605;49.432;8.680;2023-11-19T07:36:51;12.20;14.70
10417;DHT22;62605;49.432;8.680;2023-11-19T07:39:23;12.30;1.00
10417;DHT22;62605;49.432;8.680;2023-11-19T07:42:17;12.30;1.00
10417;DHT22;62605;49.432;8.680;2023-11-19T07:44:55;12.30;99.90
10417;DHT22;62605;49.432;8.680;2023-11-19T07:47:28;12.30;99.90
10417;DHT22;62605;49.432;8.680;2023-11-19T07:49:58;12.40;1.00
10417;DHT22;62605;49.432;8.680;2023-11-19T07:52:31;12.40;99.90
10417;DHT22;62605;49.432;8.680;2023-11-19T07:54:59;12.40;1.00
10417;DHT22;62605;49.432;8.680;2023-11-19T07:57:39;12.40;99.90
10417;DHT22;62605;49.432;8.680;2023-11-19T08:00:11;12.40;99.90
10417;DHT22;62605;49.432;8.680;2023-11-19T08:06:15;12.30;99.90
10417;DHT22;62605;49.432;8.680;2023-11-19T08:08:56;12.30;1.00
10417;DHT22;62605;49.432;8.680;2023-11-19T08:11:27;12.30;1.00
10417;DHT22;62605;49.432;8.680;2023-11-19T08:13:56;12.30;34.60
10417;DHT22;62605;49.432;8.680;2023-11-19T08:16:25;12.30;1.00
10417;DHT22;62605;49.432;8.680;2023-11-19T08:18:53;12.30;1.00
10417;DHT22;62605;49.432;8.680;2023-11-19T08:21:21;12.30;1.00
10417;DHT22;62605;49.432;8.680;2023-11-19T08:23:48;12.30;99.90
10417;DHT22;62605;49.432;8.680;2023-11-19T08:26:20;12.30;99.90
10417;DHT22;62605;49.432;8.680;2023-11-19T08:28:49;12.30;99.90
10417;DHT22;62605;49.432;8.680;2023-11-19T08:31:25;12.40;99.90
10417;DHT22;62605;49.432;8.680;2023-11-19T08:33:53;12.40;99.90
10417;DHT22;62605;49.432;8.680;2023-11-19T08:36:21;12.50;99.90
10417;DHT22;62605;49.432;8.680;2023-11-19T08:38:48;12.50;99.90
10417;DHT22;62605;49.432;8.680;2023-11-19T08:41:17;12.50;1.00
10417;DHT22;62605;49.432;8.680;2023-11-19T08:43:45;12.50;99.90
10417;DHT22;62605;49.432;8.680;2023-11-19T08:46:13;12.60;1.00
10417;DHT22;62605;49.432;8.680;2023-11-19T08:48:42;12.50;1.00
10417;DHT22;62605;49.432;8.680;2023-11-19T08:51:09;12.50;1.00
10417;DHT22;62605;49.432;8.680;2023-11-19T08:53:37;12.70;99.90
10417;DHT22;62605;49.432;8.680;2023-11-19T08:56:05;12.90;99.90
10417;DHT22;62605;49.432;8.680;2023-11-19T08:58:33;13.00;1.00
10417;DHT22;62605;49.432;8.680;2023-11-19T09:01:01;13.00;95.80
10417;DHT22;62605;49.432;8.680;2023-11-19T09:03:31;13.10;99.90
10417;DHT22;62605;49.432;8.680;2023-11-19T09:06:00;13.10;99.90
10417;DHT22;62605;49.432;8.680;2023-11-19T09:08:28;13.20;99.90
10417;DHT22;62605;49.432;8.680;2023-11-19T09:11:06;13.20;90.50
10417;DHT22;62605;49.432;8.680;2023-11-19T09:13:34;13.20;99.90
10417;DHT22;62605;49.432;8.680;2023-11-19T09:16:01;13.20;99.90
10417;DHT22;62605;49.432;8.680;2023-11-19T09:18:29;13.20;99.90
10417;DHT22;62605;49.432;8.680;2023-11-19T09:20:57;13.20;99.90
10417;DHT22;62605;49.432;8.680;2023-11-19T09:23:27;13.20;1.00
10417;DHT22;62605;49.432;8.680;2023-11-19T09:25:55;13.20;99.90
10417;DHT22;62605;49.432;8.680;2023-11-19T09:28:33;13.20;1.00
10417;DHT22;62605;49.432;8.680;2023-11-19T09:31:00;13.10;99.90
10417;DHT22;62605;49.432;8.680;2023-11-19T09:33:31;13.20;1.00
10417;DHT22;62605;49.432;8.680;2023-11-19T09:36:00;13.30;1.00
10417;DHT22;62605;49.432;8.680;2023-11-19T09:38:29;13.40;99.90
10417;DHT22;62605;49.432;8.680;2023-11-19T09:40:57;13.50;99.90
10417;DHT22;62605;49.432;8.680;2023-11-19T09:43:27;13.70;1.00
10417;DHT22;62605;49.432;8.680;2023-11-19T09:46:04;13.80;99.90
10417;DHT22;62605;49.432;8.680;2023-11-19T09:48:43;13.70;99.90
10417;DHT22;62605;49.432;8.680;2023-11-19T09:51:18;13.70;1.00
10417;DHT22;62605;49.432;8.680;2023-11-19T09:53:48;13.60;1.00
10417;DHT22;62605;49.432;8.680;2023-11-19T09:56:18;13.60;1.00
10417;DHT22;62605;49.432;8.680;2023-11-19T09:58:46;13.50;1.00
10417;DHT22;62605;49.432;8.680;2023-11-19T10:01:14;13.50;1.00
10417;DHT22;62605;49.432;8.680;2023-11-19T10:03:42;13.50;1.00
10417;DHT22;62605;49.432;8.680;2023-11-19T10:06:10;13.50;1.00
10417;DHT22;62605;49.432;8.680;2023-11-19T10:08:40;13.40;99.90
10417;DHT22;62605;49.432;8.680;2023-11-19T10:11:10;13.50;99.90
10417;DHT22;62605;49.432;8.680;2023-11-19T10:13:42;13.50;1.00
10417;DHT22;62605;49.432;8.680;2023-11-19T10:16:18;13.60;1.00
10417;DHT22;62605;49.432;8.680;2023-11-19T10:18:47;13.50;1.00
10417;DHT22;62605;49.432;8.680;2023-11-19T10:21:19;13.60;1.00
10417;DHT22;62605;49.432;8.680;2023-11-19T10:23:58;13.70;99.90
10417;DHT22;62605;49.432;8.680;2023-11-19T10:26:29;14.00;99.90
10417;DHT22;62605;49.432;8.680;2023-11-19T10:29:00;14.30;1.00
10417;DHT22;62605;49.432;8.680;2023-11-19T10:31:27;14.40;99.90
10417;DHT22;62605;49.432;8.680;2023-11-19T10:33:54;14.40;99.90
10417;DHT22;62605;49.432;8.680;2023-11-19T10:36:22;14.40;99.90
10417;DHT22;62605;49.432;8.680;2023-11-19T10:38:54;14.50;99.90
10417;DHT22;62605;49.432;8.680;2023-11-19T10:41:30;14.50;1.00
10417;DHT22;62605;49.432;8.680;2023-11-19T10:43:57;14.50;1.00
10417;DHT22;62605;49.432;8.680;2023-11-19T10:46:36;14.60;1.00
10417;DHT22;62605;49.432;8.680;2023-11-19T10:49:04;14.40;1.00
10417;DHT22;62605;49.432;8.680;2023-11-19T10:51:32;14.40;99.90
10417;DHT22;62605;49.432;8.680;2023-11-19T10:54:03;14.40;99.90
10417;DHT22;62605;49.432;8.680;2023-11-19T10:56:34;14.40;1.00
10417;DHT22;62605;49.432;8.680;2023-11-19T10:59:01;14.40;99.90
10417;DHT22;62605;49.432;8.680;2023-11-19T11:01:36;14.40;99.90
10417;DHT22;62605;49.432;8.680;2023-11-19T11:04:11;14.40;99.90
10417;DHT22;62605;49.432;8.680;2023-11-19T11:06:42;14.50;99.90
10417;DHT22;62605;49.432;8.680;2023-11-19T11:09:11;14.50;99.90
10417;DHT22;62605;49.432;8.680;2023-11-19T11:11:41;14.60;99.90
10417;DHT22;62605;49.432;8.680;2023-11-19T11:14:14;14.60;99.90
10417;DHT22;62605;49.432;8.680;2023-11-19T11:16:43;14.80;99.90
10417;DHT22;62605;49.432;8.680;2023-11-19T11:19:11;14.70;99.90
10417;DHT22;62605;49.432;8.680;2023-11-19T11:21:41;14.70;99.90
10417;DHT22;62605;49.432;8.680;2023-11-19T11:30:39;14.70;42.00
10417;DHT22;62605;49.432;8.680;2023-11-19T11:33:24;14.60;1.00
10417;DHT22;62605;49.432;8.680;2023-11-19T11:36:02;14.70;1.00
10417;DHT22;62605;49.432;8.680;2023-11-19T11:38:36;14.70;1.00
10417;DHT22;62605;49.432;8.680;2023-11-19T11:41:18;14.70;1.00
10417;DHT22;62605;49.432;8.680;2023-11-19T11:43:49;14.90;1.00
10417;DHT22;62605;49.432;8.680;2023-11-19T11:46:54;15.10;1.00
10417;DHT22;62605;49.432;8.680;2023-11-19T11:49:28;15.20;1.00
10417;DHT22;62605;49.432;8.680;2023-11-19T11:52:04;15.40;1.00
10417;DHT22;62605;49.432;8.680;2023-11-19T11:54:33;15.50;1.00
10417;DHT22;62605;49.432;8.680;2023-11-19T11:57:03;15.60;1.00
10417;DHT22;62605;49.432;8.680;2023-11-19T11:59:50;15.70;1.00
10417;DHT22;62605;49.432;8.680;2023-11-19T12:02:19;15.90;1.00
10417;DHT22;62605;49.432;8.680;2023-11-19T12:04:48;16.10;1.00
10417;DHT22;62605;49.432;8.680;2023-11-19T12:07:17;16.10;1.00
10417;DHT22;62605;49.432;8.680;2023-11-19T12:09:51;16.20;1.00
10417;DHT22;62605;49.432;8.680;2023-11-19T12:12:23;16.20;1.00
10417;DHT22;62605;49.432;8.680;2023-11-19T12:15:03;16.20;1.00
10417;DHT22;62605;49.432;8.680;2023-11-19T12:17:42;16.10;1.00
10417;DHT22;62605;49.432;8.680;2023-11-19T12:20:12;16.20;1.00
10417;DHT22;62605;49.432;8.680;2023-11-19T12:22:40;16.30;1.00
10417;DHT22;62605;49.432;8.680;2023-11-19T12:25:09;16.50;1.00
10417;DHT22;62605;49.432;8.680;2023-11-19T12:27:39;16.40;1.00
10417;DHT22;62605;49.432;8.680;2023-11-19T12:30:08;16.20;1.00
10417;DHT22;62605;49.432;8.680;2023-11-19T12:32:40;16.10;1.00
10417;DHT22;62605;49.432;8.680;2023-11-19T12:35:09;16.00;1.00
10417;DHT22;62605;49.432;8.680;2023-11-19T12:37:45;16.00;1.00
10417;DHT22;62605;49.432;8.680;2023-11-19T12:40:15;16.00;99.90
10417;DHT22;62605;49.432;8.680;2023-11-19T12:42:43;16.10;99.90
10417;DHT22;62605;49.432;8.680;2023-11-19T12:45:13;16.30;99.90
10417;DHT22;62605;49.432;8.680;2023-11-19T12:47:42;16.40;99.90
10417;DHT22;62605;49.432;8.680;2023-11-19T12:50:10;16.50;99.90
10417;DHT22;62605;49.432;8.680;2023-11-19T12:52:38;16.50;99.90
10417;DHT22;62605;49.432;8.680;2023-11-19T12:57:50;16.60;99.90
10417;DHT22;62605;49.432;8.680;2023-11-19T13:00:23;16.80;99.90
10417;DHT22;62605;49.432;8.680;2023-11-19T13:02:52;16.90;99.90
10417;DHT22;62605;49.432;8.680;2023-11-19T13:05:27;16.80;99.90
10417;DHT22;62605;49.432;8.680;2023-11-19T13:08:03;16.70;99.90
10417;DHT22;62605;49.432;8.680;2023-11-19T13:10:31;16.70;99.90
10417;DHT22;62605;49.432;8.680;2023-11-19T13:13:06;16.70;99.90
10417;DHT22;62605;49.432;8.680;2023-11-19T13:15:35;16.80;99.90
10417;DHT22;62605;49.432;8.680;2023-11-19T13:18:03;16.80;99.90
10417;DHT22;62605;49.432;8.680;2023-11-19T13:20:30;16.70;99.90
10417;DHT22;62605;49.432;8.680;2023-11-19T13:23:00;16.60;99.90
10417;DHT22;62605;49.432;8.680;2023-11-19T13:25:27;16.50;99.90
10417;DHT22;62605;49.432;8.680;2023-11-19T13:27:55;16.40;99.90
10417;DHT22;62605;49.432;8.680;2023-11-19T13:30:24;16.30;99.90
10417;DHT22;62605;49.432;8.680;2023-11-19T13:32:53;16.30;99.90
10417;DHT22;62605;49.432;8.680;2023-11-19T13:35:22;16.50;99.90
10417;DHT22;62605;49.432;8.680;2023-11-19T13:37:49;16.60;99.90
10417;DHT22;62605;49.432;8.680;2023-11-19T13:40:19;16.60;99.90
10417;DHT22;62605;49.432;8.680;2023-11-19T13:42:48;16.70;99.90
10417;DHT22;62605;49.432;8.680;2023-11-19T13:45:16;16.80;99.90
10417;DHT22;62605;49.432;8.680;2023-11-19T13:47:45;16.80;99.90
10417;DHT22;62605;49.432;8.680;2023-11-19T13:50:15;16.90;99.90
10417;DHT22;62605;49.432;8.680;2023-11-19T13:52:44;16.80;99.90
10417;DHT22;62605;49.432;8.680;2023-11-19T13:55:13;16.80;99.90
10417;DHT22;62605;49.432;8.680;2023-11-19T13:57:41;16.70;99.90
10417;DHT22;62605;49.432;8.680;2023-11-19T14:00:39;16.40;99.90
10417;DHT22;62605;49.432;8.680;2023-11-19T14:03:08;16.30;99.90
10417;DHT22;62605;49.432;8.680;2023-11-19T14:05:38;16.10;99.90
10417;DHT22;62605;49.432;8.680;2023-11-19T14:08:07;16.10;99.90
10417;DHT22;62605;49.432;8.680;2023-11-19T14:10:37;15.90;98.90
10417;DHT22;62605;49.432;8.680;2023-11-19T14:13:06;15.80;95.90
10417;DHT22;62605;49.432;8.680;2023-11-19T14:15:34;15.70;92.10
10417;DHT22;62605;49.432;8.680;2023-11-19T14:18:02;15.70;75.60
10417;DHT22;62605;49.432;8.680;2023-11-19T14:20:30;15.60;60.10
10417;DHT22;62605;49.432;8.680;2023-11-19T14:22:59;15.50;57.60
10417;DHT22;62605;49.432;8.680;2023-11-19T14:25:27;15.60;39.50
10417;DHT22;62605;49.432;8.680;2023-11-19T14:27:54;15.40;37.50
10417;DHT22;62605;49.432;8.680;2023-11-19T14:30:21;15.40;25.90
10417;DHT22;62605;49.432;8.680;2023-11-19T14:32:49;15.40;24.90
10417;DHT22;62605;49.432;8.680;2023-11-19T14:35:16;15.40;20.40
10417;DHT22;62605;49.432;8.680;2023-11-19T14:37:45;15.40;17.30
10417;DHT22;62605;49.432;8.680;2023-11-19T14:40:14;15.30;10.50
10417;DHT22;62605;49.432;8.680;2023-11-19T14:42:43;15.30;6.50
10417;DHT22;62605;49.432;8.680;2023-11-19T14:45:11;15.20;9.40
10417;DHT22;62605;49.432;8.680;2023-11-19T14:47:41;15.10;2.10
10417;DHT22;62605;49.432;8.680;2023-11-19T14:50:09;15.00;5.00
10417;DHT22;62605;49.432;8.680;2023-11-19T14:52:37;15.00;1.00
10417;DHT22;62605;49.432;8.680;2023-11-19T14:55:06;15.00;1.00
10417;DHT22;62605;49.432;8.680;2023-11-19T14:57:35;15.00;1.00
10417;DHT22;62605;49.432;8.680;2023-11-19T15:00:06;14.80;1.00
10417;DHT22;62605;49.432;8.680;2023-11-19T15:02:39;14.80;1.00
10417;DHT22;62605;49.432;8.680;2023-11-19T15:05:08;14.70;1.00
10417;DHT22;62605;49.432;8.680;2023-11-19T15:07:36;14.60;1.00
10417;DHT22;62605;49.432;8.680;2023-11-19T15:10:05;14.50;1.00
10417;DHT22;62605;49.432;8.680;2023-11-19T15:12:38;14.70;1.00
10417;DHT22;62605;49.432;8.680;2023-11-19T15:15:08;14.70;1.00
10417;DHT22;62605;49.432;8.680;2023-11-19T15:17:39;14.80;1.00
10417;DHT22;62605;49.432;8.680;2023-11-19T15:20:07;14.80;1.00
10417;DHT22;62605;49.432;8.680;2023-11-19T15:22:35;14.90;1.00
10417;DHT22;62605;49.432;8.680;2023-11-19T15:25:02;14.90;1.00
10417;DHT22;62605;49.432;8.680;2023-11-19T15:27:33;14.70;1.00
10417;DHT22;62605;49.432;8.680;2023-11-19T15:30:03;14.60;1.00
10417;DHT22;62605;49.432;8.680;2023-11-19T15:32:33;14.50;1.00
10417;DHT22;62605;49.432;8.680;2023-11-19T15:35:08;14.50;1.00
10417;DHT22;62605;49.432;8.680;2023-11-19T15:37:37;14.40;1.00
10417;DHT22;62605;49.432;8.680;2023-11-19T15:40:06;14.40;1.00
10417;DHT22;62605;49.432;8.680;2023-11-19T15:42:35;14.40;1.00
10417;DHT22;62605;49.432;8.680;2023-11-19T15:45:05;14.20;1.00
10417;DHT22;62605;49.432;8.680;2023-11-19T15:47:33;14.10;4.90
10417;DHT22;62605;49.432;8.680;2023-11-19T15:50:01;14.00;1.00
10417;DHT22;62605;49.432;8.680;2023-11-19T15:52:29;14.20;1.00
10417;DHT22;62605;49.432;8.680;2023-11-19T15:55:00;14.20;1.00
10417;DHT22;62605;49.432;8.680;2023-11-19T15:57:27;14.20;1.00
10417;DHT22;62605;49.432;8.680;2023-11-19T15:59:55;14.40;1.00
10417;DHT22;62605;49.432;8.680;2023-11-19T16:02:24;14.30;1.00
10417;DHT22;62605;49.432;8.680;2023-11-19T16:04:52;14.30;1.00
10417;DHT22;62605;49.432;8.680;2023-11-19T16:07:19;14.20;1.00
10417;DHT22;62605;49.432;8.680;2023-11-19T16:09:48;14.10;1.00
10417;DHT22;62605;49.432;8.680;2023-11-19T16:12:15;14.10;1.00